Time;durP1;ratioP1;P1;durP2;ratioP2;P2;SDS_P1;SDS_P2;PMS_P1;PMS_P2;Temp;Humidity;BMP_temperature;BMP_pressure;BME280_temperature;BME280_humidity;BME280_pressure;Samples;Min_cycle;Max_cycle;Signal;HPM_P1;HPM_P2
2022/07/15 00:00:28;;;;;;;4.40;2.10;;;;;;;;;;5017044;28;20030;-76
2022/07/15 00:02:53;;;;;;;4.85;1.83;;;;;;;;;;5008729;28;20029;-77
2022/07/15 00:05:19;;;;;;;5.53;2.30;;;;;;;;;;5018306;28;20029;-74
2022/07/15 00:07:44;;;;;;;5.78;2.38;;;;;;;;;;5018692;28;20049;-76
2022/07/15 00:10:15;;;;;;;6.72;2.72;;;;;;;;;;5000569;28;20033;-75
2022/07/15 00:12:51;;;;;;;6.82;2.78;;;;;;;;;;5012515;28;20761;-74
2022/07/15 00:15:18;;;;;;;6.85;1.70;;;;;;;;;;5018257;28;20378;-77
2022/07/15 00:17:43;;;;;;;5.45;1.98;;;;;;;;;;5017868;28;20050;-76
2022/07/15 00:20:09;;;;;;;6.75;2.22;;;;;;;;;;5017762;28;20022;-76
2022/07/15 00:22:35;;;;;;;4.40;2.55;;;;;;;;;;5017291;28;20083;-74
2022/07/15 00:25:00;;;;;;;5.72;1.70;;;;;;;;;;5019666;28;20539;-74
2022/07/15 00:27:25;;;;;;;8.63;2.13;;;;;;;;;;5002255;28;20037;-75
2022/07/15 00:29:51;;;;;;;4.05;1.90;;;;;;;;;;5020902;28;20484;-77
2022/07/15 00:32:16;;;;;;;4.03;2.40;;;;;;;;;;5019598;28;20024;-77
2022/07/15 00:34:42;;;;;;;8.52;3.05;;;;;;;;;;5017146;28;20036;-77
2022/07/15 00:37:07;;;;;;;4.40;2.17;;;;;;;;;;5021313;28;20528;-76
2022/07/15 00:39:32;;;;;;;6.47;2.17;;;;;;;;;;5015714;28;20384;-74
2022/07/15 00:41:57;;;;;;;3.42;1.85;;;;;;;;;;5019154;28;20047;-77
2022/07/15 00:44:23;;;;;;;3.03;1.98;;;;;;;;;;5017301;28;20053;-75
2022/07/15 00:46:48;;;;;;;6.07;2.22;;;;;;;;;;5014270;28;20108;-76
2022/07/15 00:49:14;;;;;;;5.38;2.25;;;;;;;;;;5016381;28;20473;-76
2022/07/15 00:51:43;;;;;;;5.68;2.28;;;;;;;;;;5018495;28;20033;-76
2022/07/15 00:54:09;;;;;;;4.60;2.00;;;;;;;;;;4999648;28;20038;-74
2022/07/15 00:56:46;;;;;;;4.50;2.10;;;;;;;;;;5013952;28;20040;-76
2022/07/15 00:59:12;;;;;;;5.15;1.95;;;;;;;;;;5020247;28;20028;-77
2022/07/15 01:01:37;;;;;;;6.88;2.50;;;;;;;;;;5016075;28;20477;-77
2022/07/15 01:04:03;;;;;;;3.83;1.70;;;;;;;;;;4997617;28;20137;-77
2022/07/15 01:06:29;;;;;;;8.70;2.45;;;;;;;;;;5017387;28;20045;-75
2022/07/15 01:08:54;;;;;;;4.05;1.67;;;;;;;;;;5004372;28;20082;-75
2022/07/15 01:11:19;;;;;;;6.28;2.47;;;;;;;;;;4999718;28;20415;-75
2022/07/15 01:13:46;;;;;;;6.53;2.20;;;;;;;;;;5018618;28;20022;-74
2022/07/15 01:16:14;;;;;;;6.28;2.05;;;;;;;;;;5018304;28;20492;-75
2022/07/15 01:18:39;;;;;;;8.35;2.60;;;;;;;;;;5021669;28;20029;-73
2022/07/15 01:21:05;;;;;;;6.97;2.88;;;;;;;;;;5017847;28;20106;-75
2022/07/15 01:23:30;;;;;;;4.82;2.42;;;;;;;;;;4997685;28;20280;-74
2022/07/15 01:25:55;;;;;;;4.38;2.17;;;;;;;;;;5001515;28;20638;-77
2022/07/15 01:28:21;;;;;;;7.07;2.70;;;;;;;;;;5017121;28;20033;-76
2022/07/15 01:30:46;;;;;;;4.00;2.40;;;;;;;;;;5017643;28;20038;-74
2022/07/15 01:33:11;;;;;;;6.63;2.50;;;;;;;;;;5017392;28;20022;-77
2022/07/15 01:35:37;;;;;;;6.40;2.53;;;;;;;;;;5021486;28;20099;-74
2022/07/15 01:38:02;;;;;;;5.72;2.25;;;;;;;;;;5017869;28;20017;-74
2022/07/15 01:40:28;;;;;;;4.22;2.03;;;;;;;;;;5016387;28;20025;-75
2022/07/15 01:42:53;;;;;;;6.22;1.83;;;;;;;;;;5022003;28;20129;-76
2022/07/15 01:45:18;;;;;;;5.63;1.95;;;;;;;;;;5020724;28;20555;-75
2022/07/15 01:47:44;;;;;;;5.28;2.20;;;;;;;;;;5020840;28;20034;-77
2022/07/15 01:50:09;;;;;;;9.45;2.15;;;;;;;;;;5003030;28;20033;-77
2022/07/15 01:52:34;;;;;;;9.68;3.45;;;;;;;;;;4999949;28;20041;-77
2022/07/15 01:55:00;;;;;;;7.78;2.50;;;;;;;;;;5022993;28;20017;-77
2022/07/15 01:57:25;;;;;;;7.28;3.10;;;;;;;;;;5019166;28;20095;-75
2022/07/15 01:59:53;;;;;;;8.67;2.17;;;;;;;;;;5003216;28;20449;-77
2022/07/15 02:02:18;;;;;;;10.75;4.38;;;;;;;;;;5016710;28;20289;-77
2022/07/15 02:04:44;;;;;;;5.13;2.20;;;;;;;;;;5020538;28;20453;-77
2022/07/15 02:07:09;;;;;;;5.53;1.85;;;;;;;;;;5004496;28;20304;-77
2022/07/15 02:09:34;;;;;;;10.80;3.45;;;;;;;;;;5002195;28;20030;-77
2022/07/15 02:11:59;;;;;;;9.55;2.83;;;;;;;;;;5004995;28;20139;-76
2022/07/15 02:14:25;;;;;;;6.28;3.60;;;;;;;;;;5002031;28;20553;-74
2022/07/15 02:16:53;;;;;;;5.20;2.67;;;;;;;;;;5005224;28;20026;-74
2022/07/15 02:19:18;;;;;;;7.82;3.08;;;;;;;;;;5004736;28;20568;-75
2022/07/15 02:21:43;;;;;;;9.15;3.15;;;;;;;;;;5005826;28;20022;-75
2022/07/15 02:24:09;;;;;;;13.57;3.23;;;;;;;;;;5002696;28;20311;-75
2022/07/15 02:26:34;;;;;;;9.57;2.63;;;;;;;;;;5005964;28;20283;-76
2022/07/15 02:28:59;;;;;;;5.32;2.58;;;;;;;;;;5004038;28;20387;-76
2022/07/15 02:31:25;;;;;;;8.02;2.25;;;;;;;;;;4998816;28;20109;-76
2022/07/15 02:33:50;;;;;;;6.47;2.20;;;;;;;;;;5000257;28;20108;-75
2022/07/15 02:36:15;;;;;;;6.88;3.20;;;;;;;;;;4996911;28;20072;-75
2022/07/15 02:38:41;;;;;;;6.78;2.38;;;;;;;;;;4996495;28;20037;-77
2022/07/15 02:41:07;;;;;;;7.68;2.67;;;;;;;;;;4995044;28;20482;-75
2022/07/15 02:43:32;;;;;;;5.93;2.03;;;;;;;;;;4996302;28;20030;-76
2022/07/15 02:45:57;;;;;;;9.27;2.60;;;;;;;;;;5000950;28;20041;-74
2022/07/15 02:48:23;;;;;;;8.27;2.70;;;;;;;;;;5005442;28;20105;-77
2022/07/15 02:50:48;;;;;;;4.05;2.00;;;;;;;;;;5003834;28;20553;-77
2022/07/15 02:53:14;;;;;;;6.70;3.50;;;;;;;;;;5005025;28;20144;-75
2022/07/15 02:55:39;;;;;;;9.02;2.45;;;;;;;;;;4998497;28;20033;-77
2022/07/15 02:58:04;;;;;;;6.75;2.58;;;;;;;;;;5000488;28;20018;-78
2022/07/15 03:00:30;;;;;;;6.28;2.72;;;;;;;;;;4996395;28;20029;-77
2022/07/15 03:02:55;;;;;;;4.38;1.88;;;;;;;;;;4999760;28;20030;-77
2022/07/15 03:05:20;;;;;;;7.80;2.60;;;;;;;;;;5000991;28;20022;-74
2022/07/15 03:07:46;;;;;;;6.97;2.25;;;;;;;;;;4999674;28;20184;-77
2022/07/15 03:10:11;;;;;;;8.95;2.60;;;;;;;;;;4995424;28;20035;-74
2022/07/15 03:12:36;;;;;;;5.80;2.35;;;;;;;;;;4998328;28;20438;-74
2022/07/15 03:15:02;;;;;;;7.07;2.67;;;;;;;;;;5000557;28;20028;-75
2022/07/15 03:17:27;;;;;;;6.20;2.28;;;;;;;;;;5002329;28;20108;-74
2022/07/15 03:19:55;;;;;;;5.60;2.30;;;;;;;;;;5001119;28;20037;-77
2022/07/15 03:22:21;;;;;;;10.43;3.00;;;;;;;;;;5002256;28;20026;-74
2022/07/15 03:24:46;;;;;;;7.50;4.32;;;;;;;;;;5003136;28;20101;-74
2022/07/15 03:27:11;;;;;;;4.43;1.95;;;;;;;;;;4999925;28;20045;-77
2022/07/15 03:29:36;;;;;;;6.60;3.10;;;;;;;;;;5001164;28;20109;-74
2022/07/15 03:32:02;;;;;;;6.30;2.30;;;;;;;;;;4999618;28;21068;-76
2022/07/15 03:34:27;;;;;;;5.40;2.95;;;;;;;;;;4999904;28;20026;-75
2022/07/15 03:36:53;;;;;;;7.32;2.47;;;;;;;;;;4999728;28;20018;-76
2022/07/15 03:39:18;;;;;;;6.40;2.35;;;;;;;;;;5003744;28;20494;-75
2022/07/15 03:41:43;;;;;;;4.43;2.00;;;;;;;;;;5000362;28;20053;-75
2022/07/15 03:44:09;;;;;;;7.30;2.30;;;;;;;;;;4999692;28;20113;-74
2022/07/15 03:46:34;;;;;;;5.18;2.25;;;;;;;;;;5001518;28;20393;-77
2022/07/15 03:49:00;;;;;;;5.65;2.10;;;;;;;;;;4998534;28;20030;-75
2022/07/15 03:51:30;;;;;;;8.73;2.92;;;;;;;;;;5016495;28;20041;-77
2022/07/15 03:53:55;;;;;;;5.20;2.55;;;;;;;;;;5009263;28;20022;-77
2022/07/15 03:56:21;;;;;;;5.55;2.35;;;;;;;;;;5013505;28;20046;-77
2022/07/15 03:58:46;;;;;;;3.47;2.23;;;;;;;;;;4996599;28;20390;-75
2022/07/15 04:01:11;;;;;;;7.78;2.53;;;;;;;;;;4998777;28;20299;-76
2022/07/15 04:03:36;;;;;;;5.10;2.38;;;;;;;;;;4999321;28;20045;-77
2022/07/15 04:06:01;;;;;;;6.60;2.50;;;;;;;;;;5005658;28;20049;-76
2022/07/15 04:08:27;;;;;;;4.43;1.95;;;;;;;;;;5019708;28;20297;-74
2022/07/15 04:10:52;;;;;;;8.85;2.38;;;;;;;;;;5019072;28;20433;-77
2022/07/15 04:13:18;;;;;;;6.57;2.47;;;;;;;;;;5017622;28;20041;-75
2022/07/15 04:15:44;;;;;;;6.97;2.15;;;;;;;;;;5000902;28;20028;-77
2022/07/15 04:18:10;;;;;;;5.30;2.05;;;;;;;;;;5013768;28;20097;-77
2022/07/15 04:20:35;;;;;;;5.80;2.10;;;;;;;;;;5017950;28;20021;-77
2022/07/15 04:23:01;;;;;;;7.25;3.13;;;;;;;;;;5019585;28;20033;-77
2022/07/15 04:25:26;;;;;;;7.97;2.42;;;;;;;;;;5020421;28;20033;-74
2022/07/15 04:27:51;;;;;;;12.85;2.92;;;;;;;;;;5013983;28;20037;-76
2022/07/15 04:30:16;;;;;;;7.85;2.47;;;;;;;;;;5016214;28;20032;-75
2022/07/15 04:32:44;;;;;;;7.13;2.28;;;;;;;;;;5020944;28;20041;-75
2022/07/15 04:35:10;;;;;;;6.40;2.67;;;;;;;;;;5016092;28;20053;-75
2022/07/15 04:37:35;;;;;;;8.57;2.15;;;;;;;;;;5020691;28;20434;-75
2022/07/15 04:40:00;;;;;;;5.82;2.55;;;;;;;;;;5019454;28;20028;-77
2022/07/15 04:42:25;;;;;;;3.78;1.90;;;;;;;;;;5018984;28;20426;-76
2022/07/15 04:44:51;;;;;;;4.85;2.53;;;;;;;;;;5021627;28;20017;-76
2022/07/15 04:47:16;;;;;;;3.42;1.60;;;;;;;;;;4999643;28;20876;-76
2022/07/15 04:52:25;;;;;;;8.50;2.85;;;;;;;;;;5018897;28;20044;-77
2022/07/15 04:54:51;;;;;;;15.80;2.65;;;;;;;;;;5014422;28;20026;-77
2022/07/15 04:57:17;;;;;;;8.95;2.60;;;;;;;;;;5011431;28;20039;-76
2022/07/15 04:59:42;;;;;;;12.48;3.05;;;;;;;;;;5016857;28;20436;-75
2022/07/15 05:02:07;;;;;;;7.00;1.95;;;;;;;;;;5011803;28;20036;-76
2022/07/15 05:04:32;;;;;;;8.70;2.20;;;;;;;;;;5001154;28;20454;-74
2022/07/15 05:06:58;;;;;;;9.57;2.25;;;;;;;;;;5021058;28;20053;-77
2022/07/15 05:09:23;;;;;;;5.97;2.53;;;;;;;;;;5024659;28;20033;-75
2022/07/15 05:11:51;;;;;;;3.72;1.52;;;;;;;;;;5021590;28;20121;-76
2022/07/15 05:14:16;;;;;;;5.85;1.63;;;;;;;;;;5021125;28;20117;-75
2022/07/15 05:16:42;;;;;;;8.52;2.03;;;;;;;;;;5007063;28;20564;-75
2022/07/15 05:19:07;;;;;;;9.43;1.90;;;;;;;;;;5023940;28;20017;-75
2022/07/15 05:21:32;;;;;;;5.70;1.83;;;;;;;;;;5004401;28;20030;-77
2022/07/15 05:23:57;;;;;;;10.45;2.58;;;;;;;;;;5025823;28;20064;-74
2022/07/15 05:26:23;;;;;;;5.63;1.27;;;;;;;;;;5023696;28;20120;-75
2022/07/15 05:28:48;;;;;;;5.55;1.70;;;;;;;;;;5023221;28;20518;-77
2022/07/15 05:31:14;;;;;;;5.20;1.48;;;;;;;;;;5021662;28;20026;-77
2022/07/15 05:33:39;;;;;;;3.20;1.50;;;;;;;;;;5022107;28;20033;-77
2022/07/15 05:36:04;;;;;;;4.68;1.38;;;;;;;;;;5022472;28;20025;-75
2022/07/15 05:38:30;;;;;;;7.43;1.92;;;;;;;;;;5025905;28;20021;-74
2022/07/15 05:40:55;;;;;;;2.58;1.02;;;;;;;;;;5030495;28;20017;-75
2022/07/15 05:43:20;;;;;;;4.90;1.20;;;;;;;;;;5005228;28;20022;-74
2022/07/15 05:45:46;;;;;;;2.40;1.70;;;;;;;;;;5024223;28;20029;-76
2022/07/15 05:48:11;;;;;;;5.72;1.02;;;;;;;;;;5021419;28;20040;-76
2022/07/15 05:50:36;;;;;;;3.88;1.27;;;;;;;;;;5018475;28;20021;-76
2022/07/15 05:53:01;;;;;;;4.18;1.30;;;;;;;;;;5021681;28;20065;-76
2022/07/15 05:55:27;;;;;;;4.75;1.00;;;;;;;;;;5020504;28;20021;-76
2022/07/15 05:57:52;;;;;;;3.20;1.23;;;;;;;;;;5018826;28;20485;-76
2022/07/15 06:00:17;;;;;;;3.50;1.42;;;;;;;;;;5024526;28;20402;-76
2022/07/15 06:02:42;;;;;;;2.72;1.05;;;;;;;;;;5005391;28;20493;-77
2022/07/15 06:05:08;;;;;;;6.80;1.45;;;;;;;;;;5024712;28;20095;-74
2022/07/15 06:07:33;;;;;;;2.70;1.48;;;;;;;;;;5001738;28;20235;-77
2022/07/15 06:09:59;;;;;;;6.15;1.40;;;;;;;;;;4994564;28;20083;-76
2022/07/15 06:12:25;;;;;;;3.70;1.20;;;;;;;;;;5004352;28;20475;-75
2022/07/15 06:14:50;;;;;;;4.57;0.93;;;;;;;;;;5003639;28;20030;-75
2022/07/15 06:17:15;;;;;;;5.25;1.45;;;;;;;;;;5004136;28;20272;-74
2022/07/15 06:19:43;;;;;;;1.90;0.90;;;;;;;;;;5008018;28;20107;-76
2022/07/15 06:22:09;;;;;;;4.63;1.40;;;;;;;;;;5009067;28;20030;-75
2022/07/15 06:24:34;;;;;;;5.88;1.60;;;;;;;;;;5005106;28;20116;-78
2022/07/15 06:26:59;;;;;;;4.80;1.40;;;;;;;;;;5008715;28;20044;-78
2022/07/15 06:29:24;;;;;;;1.73;0.80;;;;;;;;;;5010675;28;20390;-77
2022/07/15 06:31:50;;;;;;;3.97;1.00;;;;;;;;;;5011478;28;20486;-77
2022/07/15 06:34:15;;;;;;;6.45;0.95;;;;;;;;;;5016933;28;20057;-74
2022/07/15 06:36:41;;;;;;;2.15;1.00;;;;;;;;;;5011197;28;20022;-77
2022/07/15 06:39:06;;;;;;;6.63;1.30;;;;;;;;;;5012371;28;20018;-77
2022/07/15 06:41:31;;;;;;;2.03;0.80;;;;;;;;;;5026140;28;20034;-77
2022/07/15 06:43:57;;;;;;;2.38;0.90;;;;;;;;;;5013423;28;20061;-76
2022/07/15 06:46:22;;;;;;;2.97;1.10;;;;;;;;;;5009516;28;20112;-74
2022/07/15 06:48:48;;;;;;;2.83;1.27;;;;;;;;;;5010036;28;20040;-78
2022/07/15 06:51:13;;;;;;;2.88;0.73;;;;;;;;;;5009023;28;20022;-76
2022/07/15 06:53:41;;;;;;;1.92;0.68;;;;;;;;;;5010070;28;20045;-75
2022/07/15 06:56:06;;;;;;;5.15;0.90;;;;;;;;;;5006792;28;20033;-76
2022/07/15 06:58:31;;;;;;;1.40;0.55;;;;;;;;;;5006737;28;20080;-74
2022/07/15 07:00:57;;;;;;;1.20;0.70;;;;;;;;;;5027068;28;20026;-75
2022/07/15 07:03:22;;;;;;;1.52;0.60;;;;;;;;;;5013241;28;20034;-75
2022/07/15 07:05:47;;;;;;;1.02;0.50;;;;;;;;;;5010560;28;20041;-75
2022/07/15 07:08:13;;;;;;;2.22;0.60;;;;;;;;;;5012107;28;20433;-75
2022/07/15 07:10:38;;;;;;;4.75;0.80;;;;;;;;;;5029031;28;20303;-76
2022/07/15 07:13:03;;;;;;;2.45;0.60;;;;;;;;;;5019445;28;20033;-75
2022/07/15 07:15:29;;;;;;;1.90;0.50;;;;;;;;;;5028082;28;20033;-77
2022/07/15 07:17:54;;;;;;;0.50;0.50;;;;;;;;;;5018987;28;20031;-75
2022/07/15 07:20:19;;;;;;;0.30;0.30;;;;;;;;;;5023203;28;20481;-75
2022/07/15 07:22:44;;;;;;;3.80;0.60;;;;;;;;;;5017732;28;20072;-77
2022/07/15 07:25:10;;;;;;;2.83;0.60;;;;;;;;;;5019395;28;20116;-76
2022/07/15 07:27:35;;;;;;;2.72;0.57;;;;;;;;;;5023979;28;20274;-78
2022/07/15 07:30:04;;;;;;;1.30;1.20;;;;;;;;;;5028710;28;20049;-75
2022/07/15 07:32:30;;;;;;;1.58;0.70;;;;;;;;;;5006366;28;20409;-78
2022/07/15 07:34:55;;;;;;;0.95;0.70;;;;;;;;;;5029362;28;20032;-78
2022/07/15 07:37:20;;;;;;;22.17;3.63;;;;;;;;;;5020899;28;20041;-75
2022/07/15 07:39:45;;;;;;;1.58;0.70;;;;;;;;;;5004655;28;20076;-77
2022/07/15 07:42:11;;;;;;;3.53;0.68;;;;;;;;;;5023343;28;20037;-77
2022/07/15 07:44:37;;;;;;;0.57;0.52;;;;;;;;;;5022174;28;20037;-75
2022/07/15 07:47:02;;;;;;;1.08;0.65;;;;;;;;;;5021858;28;20021;-75
2022/07/15 07:49:27;;;;;;;1.60;0.52;;;;;;;;;;5009444;28;20124;-77
2022/07/15 07:51:53;;;;;;;2.58;0.70;;;;;;;;;;5032838;28;20481;-75
2022/07/15 07:54:18;;;;;;;4.57;1.00;;;;;;;;;;5006276;28;20072;-75
2022/07/15 07:56:45;;;;;;;1.38;0.50;;;;;;;;;;5004139;28;20055;-77
2022/07/15 07:59:10;;;;;;;1.70;0.52;;;;;;;;;;5025527;28;20053;-76
2022/07/15 08:01:35;;;;;;;1.30;0.57;;;;;;;;;;5004666;28;20041;-76
2022/07/15 08:04:00;;;;;;;1.50;0.70;;;;;;;;;;5026357;28;20301;-75
2022/07/15 08:06:25;;;;;;;1.55;0.63;;;;;;;;;;5024389;28;20382;-75
2022/07/15 08:08:51;;;;;;;1.42;0.80;;;;;;;;;;5023440;28;20034;-75
2022/07/15 08:11:19;;;;;;;0.70;0.50;;;;;;;;;;5027719;28;20037;-75
2022/07/15 08:13:45;;;;;;;3.13;0.82;;;;;;;;;;5007239;28;20026;-76
2022/07/15 08:16:10;;;;;;;1.95;0.50;;;;;;;;;;5008931;28;20527;-76
2022/07/15 08:18:36;;;;;;;2.45;0.55;;;;;;;;;;5030497;28;20033;-76
2022/07/15 08:21:03;;;;;;;1.85;0.60;;;;;;;;;;5028917;28;20057;-75
2022/07/15 08:23:28;;;;;;;1.85;0.63;;;;;;;;;;5008891;28;20390;-77
2022/07/15 08:25:53;;;;;;;1.37;1.07;;;;;;;;;;5021246;28;20021;-77
2022/07/15 08:28:19;;;;;;;0.77;0.60;;;;;;;;;;5020699;28;20322;-77
2022/07/15 08:30:44;;;;;;;0.70;0.60;;;;;;;;;;5015339;28;20164;-74
2022/07/15 08:33:09;;;;;;;1.77;0.80;;;;;;;;;;5017291;28;20033;-76
2022/07/15 08:35:35;;;;;;;1.48;0.70;;;;;;;;;;5016035;28;20071;-77
2022/07/15 08:38:07;;;;;;;3.95;1.17;;;;;;;;;;5001696;28;20029;-77
2022/07/15 08:40:33;;;;;;;2.58;1.13;;;;;;;;;;5019417;28;20034;-76
2022/07/15 08:42:58;;;;;;;3.40;1.15;;;;;;;;;;5002593;28;20037;-75
2022/07/15 08:45:23;;;;;;;2.65;0.90;;;;;;;;;;5018145;28;20083;-76
2022/07/15 08:47:50;;;;;;;6.35;0.95;;;;;;;;;;5002163;28;20041;-76
2022/07/15 08:50:17;;;;;;;3.50;0.90;;;;;;;;;;5021792;28;20076;-75
2022/07/15 08:52:43;;;;;;;5.60;0.98;;;;;;;;;;5023730;28;20021;-76
2022/07/15 08:55:09;;;;;;;2.47;0.85;;;;;;;;;;5004232;28;20080;-76
2022/07/15 08:57:37;;;;;;;2.33;1.77;;;;;;;;;;4999045;28;20025;-76
2022/07/15 09:00:03;;;;;;;1.58;1.08;;;;;;;;;;5015215;28;20535;-76
2022/07/15 09:02:29;;;;;;;2.33;0.73;;;;;;;;;;5018053;28;20029;-76
2022/07/15 09:05:13;;;;;;;2.20;1.60;;;;;;;;;;5020698;28;20485;-75
2022/07/15 09:07:59;;;;;;;3.95;1.05;;;;;;;;;;5017688;28;20053;-77
2022/07/15 09:10:39;;;;;;;3.60;0.95;;;;;;;;;;5021385;28;20025;-75
2022/07/15 09:13:05;;;;;;;1.33;0.90;;;;;;;;;;5015834;28;20124;-76
2022/07/15 09:15:35;;;;;;;2.55;0.95;;;;;;;;;;5017565;28;20017;-76
2022/07/15 09:18:06;;;;;;;2.38;0.98;;;;;;;;;;5020277;28;20079;-75
2022/07/15 09:20:31;;;;;;;4.15;0.90;;;;;;;;;;5018896;28;20893;-76
2022/07/15 09:22:57;;;;;;;2.97;1.30;;;;;;;;;;5016313;28;20142;-75
2022/07/15 09:25:22;;;;;;;3.15;0.98;;;;;;;;;;5017371;28;20032;-76
2022/07/15 09:27:48;;;;;;;2.70;0.75;;;;;;;;;;5002370;28;20036;-75
2022/07/15 09:36:01;;;;;;;6.47;1.73;;;;;;;;;;5016229;28;20053;-76
2022/07/15 09:38:28;;;;;;;3.80;1.15;;;;;;;;;;5018987;28;20104;-75
2022/07/15 09:40:54;;;;;;;4.32;0.93;;;;;;;;;;5020819;28;20527;-76
2022/07/15 09:43:20;;;;;;;2.75;0.90;;;;;;;;;;5005823;28;20022;-75
2022/07/15 09:45:45;;;;;;;5.33;1.63;;;;;;;;;;5023692;28;20021;-75
2022/07/15 09:48:14;;;;;;;1.60;1.05;;;;;;;;;;5022903;28;20310;-75
2022/07/15 09:50:42;;;;;;;3.67;0.77;;;;;;;;;;5024131;28;20061;-76
2022/07/15 09:53:11;;;;;;;3.17;1.10;;;;;;;;;;5022506;28;20035;-75
2022/07/15 09:55:36;;;;;;;4.45;0.90;;;;;;;;;;5023649;28;20509;-76
2022/07/15 09:58:04;;;;;;;2.72;0.73;;;;;;;;;;5021476;28;20026;-74
2022/07/15 10:00:30;;;;;;;6.35;1.92;;;;;;;;;;5023049;28;20022;-75
2022/07/15 10:02:55;;;;;;;3.40;1.00;;;;;;;;;;5031942;28;20029;-76
2022/07/15 10:05:20;;;;;;;5.13;1.30;;;;;;;;;;5012657;28;20458;-76
2022/07/15 10:07:46;;;;;;;2.92;1.00;;;;;;;;;;5024918;28;20048;-77
2022/07/15 10:10:12;;;;;;;3.83;0.98;;;;;;;;;;5024003;28;20087;-78
2022/07/15 10:13:01;;;;;;;2.22;0.73;;;;;;;;;;5003325;28;20029;-77
2022/07/15 10:15:41;;;;;;;3.53;0.95;;;;;;;;;;5028999;28;20108;-78
2022/07/15 10:18:25;;;;;;;2.13;0.80;;;;;;;;;;5023508;28;20588;-77
2022/07/15 10:21:09;;;;;;;5.45;0.85;;;;;;;;;;5008499;28;20041;-75
2022/07/15 10:23:34;;;;;;;2.38;0.77;;;;;;;;;;5008384;28;20044;-77
2022/07/15 10:26:08;;;;;;;2.07;0.70;;;;;;;;;;5028745;28;20030;-75
2022/07/15 10:28:43;;;;;;;1.30;0.68;;;;;;;;;;5024706;28;20265;-75
2022/07/15 10:31:16;;;;;;;2.15;0.75;;;;;;;;;;5027955;28;20485;-76
2022/07/15 10:33:42;;;;;;;1.65;0.60;;;;;;;;;;5023627;28;20049;-77
2022/07/15 10:36:07;;;;;;;0.57;0.47;;;;;;;;;;5029764;28;20080;-75
2022/07/15 10:38:34;;;;;;;2.05;0.77;;;;;;;;;;5011404;28;20041;-75
2022/07/15 10:41:01;;;;;;;2.72;0.73;;;;;;;;;;5024921;28;20385;-75
2022/07/15 10:43:45;;;;;;;1.48;0.70;;;;;;;;;;5028960;28;20075;-75
2022/07/15 10:46:16;;;;;;;2.42;0.60;;;;;;;;;;5030313;28;20037;-78
2022/07/15 10:48:43;;;;;;;2.03;0.57;;;;;;;;;;5021541;28;20476;-77
2022/07/15 10:51:08;;;;;;;1.80;0.60;;;;;;;;;;5028844;28;20075;-77
2022/07/15 10:53:42;;;;;;;3.22;0.90;;;;;;;;;;5028225;28;20501;-77
2022/07/15 10:56:27;;;;;;;0.98;0.60;;;;;;;;;;5027113;28;20381;-77
2022/07/15 10:59:07;;;;;;;1.73;1.50;;;;;;;;;;5026209;28;20030;-77
2022/07/15 11:01:32;;;;;;;1.75;1.10;;;;;;;;;;5023443;28;20022;-75
2022/07/15 11:04:19;;;;;;;3.03;0.82;;;;;;;;;;5027768;28;20519;-74
2022/07/15 11:07:12;;;;;;;1.38;0.70;;;;;;;;;;5024182;28;20498;-77
2022/07/15 11:09:37;;;;;;;;;;;;;;;;;;5025766;28;20036;-74
2022/07/15 11:12:03;;;;;;;2.03;1.00;;;;;;;;;;5031958;28;19912;-75
2022/07/15 11:14:46;;;;;;;3.95;1.33;;;;;;;;;;5020880;28;20022;-77
2022/07/15 11:17:12;;;;;;;1.67;0.75;;;;;;;;;;5010074;28;20041;-76
2022/07/15 11:19:37;;;;;;;4.30;1.20;;;;;;;;;;5003279;28;20021;-81
2022/07/15 11:22:03;;;;;;;2.17;0.80;;;;;;;;;;5006530;28;20057;-76
2022/07/15 11:24:28;;;;;;;3.47;0.68;;;;;;;;;;5025475;28;20029;-76
2022/07/15 11:26:54;;;;;;;1.17;0.70;;;;;;;;;;5028267;28;20519;-76
2022/07/15 11:29:19;;;;;;;3.05;1.00;;;;;;;;;;5023229;28;20080;-77
2022/07/15 11:31:44;;;;;;;2.42;0.73;;;;;;;;;;5020130;28;20129;-79
2022/07/15 11:34:11;;;;;;;3.95;0.85;;;;;;;;;;5008474;28;20025;-82
2022/07/15 11:36:36;;;;;;;5.88;0.93;;;;;;;;;;5027216;28;20128;-84
2022/07/15 11:39:02;;;;;;;1.77;0.70;;;;;;;;;;5002345;28;20112;-81
2022/07/15 11:44:30;;;;;;;0.47;0.47;;;;;;;;;;5020251;28;20036;-83
2022/07/15 11:46:56;;;;;;;3.47;0.80;;;;;;;;;;5019531;28;20044;-83
2022/07/15 11:49:31;;;;;;;1.95;0.88;;;;;;;;;;5003981;28;20053;-85
2022/07/15 11:51:57;;;;;;;1.10;0.70;;;;;;;;;;5008546;28;20115;-83
2022/07/15 11:54:22;;;;;;;0.55;0.55;;;;;;;;;;5004599;28;20093;-84
2022/07/15 11:56:58;;;;;;;2.40;0.70;;;;;;;;;;5018162;28;20494;-84
2022/07/15 11:59:23;;;;;;;1.25;0.60;;;;;;;;;;5009900;28;20021;-83
2022/07/15 12:01:59;;;;;;;1.67;0.88;;;;;;;;;;5005142;28;20037;-83
2022/07/15 12:04:27;;;;;;;2.63;0.90;;;;;;;;;;5022922;28;20040;-85
2022/07/15 12:06:53;;;;;;;2.17;1.02;;;;;;;;;;5025760;28;20091;-84
2022/07/15 12:09:18;;;;;;;3.70;1.08;;;;;;;;;;5026909;28;20025;-84
2022/07/15 12:11:43;;;;;;;1.95;0.85;;;;;;;;;;5022692;28;20873;-84
2022/07/15 12:14:17;;;;;;;3.35;1.13;;;;;;;;;;5004219;28;22929;-83
2022/07/15 12:16:52;;;;;;;3.50;0.95;;;;;;;;;;5002392;28;20469;-80
2022/07/15 12:19:19;;;;;;;4.18;0.80;;;;;;;;;;5025660;28;20672;-83
2022/07/15 12:21:46;;;;;;;2.15;0.93;;;;;;;;;;5006550;28;20395;-82
2022/07/15 12:24:14;;;;;;;2.42;0.77;;;;;;;;;;5020978;28;20841;-81
2022/07/15 12:26:57;;;;;;;2.45;0.75;;;;;;;;;;5019587;28;20036;-80
2022/07/15 12:29:24;;;;;;;3.65;0.90;;;;;;;;;;5017936;28;20348;-83
2022/07/15 12:31:54;;;;;;;2.88;0.68;;;;;;;;;;5018389;28;20401;-84
2022/07/15 12:34:19;;;;;;;7.18;1.02;;;;;;;;;;5003516;28;20036;-83
2022/07/15 12:36:54;;;;;;;1.80;0.85;;;;;;;;;;5019512;28;20022;-84
2022/07/15 12:39:19;;;;;;;4.50;0.88;;;;;;;;;;5022033;28;20034;-84
2022/07/15 12:41:45;;;;;;;3.78;1.30;;;;;;;;;;5004651;28;20040;-84
2022/07/15 12:44:13;;;;;;;4.97;0.90;;;;;;;;;;5006876;28;20021;-84
2022/07/15 12:46:57;;;;;;;1.90;1.13;;;;;;;;;;5023897;28;20045;-84
2022/07/15 12:49:42;;;;;;;2.38;0.88;;;;;;;;;;5021236;28;20518;-83
2022/07/15 12:52:19;;;;;;;3.85;0.60;;;;;;;;;;5021609;28;20113;-83
2022/07/15 12:54:44;;;;;;;5.95;1.08;;;;;;;;;;5024158;28;20025;-83
2022/07/15 12:57:19;;;;;;;2.33;0.82;;;;;;;;;;5025674;28;20107;-83
2022/07/15 12:59:50;;;;;;;1.77;1.10;;;;;;;;;;5018862;28;20517;-84
2022/07/15 13:02:16;;;;;;;2.92;0.95;;;;;;;;;;5026463;28;20091;-84
2022/07/15 13:04:41;;;;;;;3.10;0.85;;;;;;;;;;5009243;28;20030;-83
2022/07/15 13:07:09;;;;;;;1.45;0.70;;;;;;;;;;5028433;28;20192;-83
2022/07/15 13:09:37;;;;;;;2.80;0.75;;;;;;;;;;5018807;28;20036;-84
2022/07/15 13:12:02;;;;;;;2.00;0.70;;;;;;;;;;5025282;28;20038;-83
2022/07/15 13:14:28;;;;;;;0.63;0.60;;;;;;;;;;5009555;28;20362;-85
2022/07/15 13:16:53;;;;;;;1.85;0.82;;;;;;;;;;5029788;28;20033;-84
2022/07/15 13:19:18;;;;;;;3.08;2.33;;;;;;;;;;5008327;28;20099;-82
2022/07/15 13:21:44;;;;;;;2.97;0.90;;;;;;;;;;5004459;28;20793;-82
2022/07/15 13:24:09;;;;;;;4.40;1.00;;;;;;;;;;5005454;28;20397;-82
2022/07/15 13:26:34;;;;;;;0.90;0.60;;;;;;;;;;5027077;28;20025;-85
2022/07/15 13:28:59;;;;;;;3.50;0.90;;;;;;;;;;5017601;28;20168;-79
2022/07/15 13:31:24;;;;;;;3.43;1.00;;;;;;;;;;5000419;28;20294;-81
2022/07/15 13:33:50;;;;;;;1.33;1.00;;;;;;;;;;5027158;28;20294;-82
2022/07/15 13:36:15;;;;;;;1.60;0.90;;;;;;;;;;5029910;28;20354;-78
2022/07/15 13:38:40;;;;;;;2.87;1.10;;;;;;;;;;5016246;28;20021;-81
2022/07/15 13:41:05;;;;;;;5.15;1.20;;;;;;;;;;5031342;28;20293;-83
2022/07/15 13:43:31;;;;;;;5.43;1.25;;;;;;;;;;5008376;28;20490;-84
2022/07/15 13:45:56;;;;;;;4.18;1.80;;;;;;;;;;5025835;28;20045;-83
2022/07/15 13:48:21;;;;;;;2.50;1.10;;;;;;;;;;5034095;28;20035;-84
2022/07/15 13:53:30;;;;;;;2.95;0.90;;;;;;;;;;5027983;28;20293;-83
2022/07/15 13:55:56;;;;;;;2.55;1.10;;;;;;;;;;5017313;28;20026;-83
2022/07/15 13:58:21;;;;;;;1.65;1.00;;;;;;;;;;5021664;28;20025;-84
2022/07/15 14:00:46;;;;;;;2.95;1.30;;;;;;;;;;5016513;28;20025;-83
2022/07/15 14:03:12;;;;;;;4.28;2.33;;;;;;;;;;5023521;28;20044;-84
2022/07/15 14:05:37;;;;;;;2.08;1.20;;;;;;;;;;5023213;28;20022;-84
2022/07/15 14:08:03;;;;;;;3.95;1.17;;;;;;;;;;5032857;28;20473;-83
2022/07/15 14:10:28;;;;;;;2.10;1.10;;;;;;;;;;5003608;28;20397;-84
2022/07/15 14:12:53;;;;;;;5.43;1.70;;;;;;;;;;5026150;28;20489;-83
2022/07/15 14:15:19;;;;;;;1.40;1.15;;;;;;;;;;5009738;28;20083;-84
2022/07/15 14:17:44;;;;;;;3.50;1.33;;;;;;;;;;5026326;28;20021;-83
2022/07/15 14:20:09;;;;;;;1.87;1.10;;;;;;;;;;5025525;28;20044;-84
2022/07/15 14:22:35;;;;;;;6.63;1.60;;;;;;;;;;5026137;28;20303;-83
2022/07/15 14:25:00;;;;;;;2.72;1.30;;;;;;;;;;5025122;28;20029;-82
2022/07/15 14:27:25;;;;;;;3.30;1.50;;;;;;;;;;5008228;28;20043;-83
2022/07/15 14:29:51;;;;;;;3.25;1.30;;;;;;;;;;5028277;28;20029;-83
2022/07/15 14:32:16;;;;;;;2.50;1.63;;;;;;;;;;5024701;28;20034;-84
2022/07/15 14:34:41;;;;;;;3.20;1.20;;;;;;;;;;5026982;28;22509;-84
2022/07/15 14:37:07;;;;;;;1.95;1.20;;;;;;;;;;5028828;28;20286;-82
2022/07/15 14:39:32;;;;;;;5.80;1.50;;;;;;;;;;5031338;28;20029;-85
2022/07/15 14:41:58;;;;;;;6.63;1.48;;;;;;;;;;5032455;28;20064;-85
2022/07/15 14:44:24;;;;;;;3.00;1.60;;;;;;;;;;5032117;28;20071;-84
2022/07/15 14:46:49;;;;;;;3.03;1.75;;;;;;;;;;5027328;28;20037;-86
2022/07/15 14:49:14;;;;;;;4.00;1.77;;;;;;;;;;5041461;28;20032;-85
2022/07/15 14:51:39;;;;;;;4.72;1.73;;;;;;;;;;5014401;28;20039;-85
2022/07/15 14:54:05;;;;;;;3.45;1.67;;;;;;;;;;5016032;28;20025;-87